sensor_id;sensor_type;location;lat;lon;timestamp;P1;durP1;ratioP1;P2;durP2;ratioP2
48185;SDS011;33978;47.432;18.916;2022-10-16T00:01:16;7.45;;;5.00;;
48185;SDS011;33978;47.432;18.916;2022-10-16T00:03:45;8.38;;;4.80;;
48185;SDS011;33978;47.432;18.916;2022-10-16T00:06:32;8.05;;;4.72;;
48185;SDS011;33978;47.432;18.916;2022-10-16T00:08:59;8.73;;;4.93;;
48185;SDS011;33978;47.432;18.916;2022-10-16T00:11:28;7.40;;;4.80;;
48185;SDS011;33978;47.432;18.916;2022-10-16T00:13:58;7.12;;;4.87;;
48185;SDS011;33978;47.432;18.916;2022-10-16T00:16:27;9.10;;;5.20;;
48185;SDS011;33978;47.432;18.916;2022-10-16T00:18:55;8.05;;;4.87;;
48185;SDS011;33978;47.432;18.916;2022-10-16T00:21:24;9.35;;;5.00;;
48185;SDS011;33978;47.432;18.916;2022-10-16T00:24:12;8.20;;;4.78;;
48185;SDS011;33978;47.432;18.916;2022-10-16T00:26:39;8.93;;;4.85;;
48185;SDS011;33978;47.432;18.916;2022-10-16T00:29:08;8.25;;;4.90;;
48185;SDS011;33978;47.432;18.916;2022-10-16T00:31:35;6.87;;;4.95;;
48185;SDS011;33978;47.432;18.916;2022-10-16T00:34:03;8.07;;;4.90;;
48185;SDS011;33978;47.432;18.916;2022-10-16T00:36:30;6.90;;;4.43;;
48185;SDS011;33978;47.432;18.916;2022-10-16T00:38:59;8.77;;;5.55;;
48185;SDS011;33978;47.432;18.916;2022-10-16T00:41:29;8.25;;;5.18;;
48185;SDS011;33978;47.432;18.916;2022-10-16T00:43:58;7.03;;;4.82;;
48185;SDS011;33978;47.432;18.916;2022-10-16T00:49:12;9.50;;;4.80;;
48185;SDS011;33978;47.432;18.916;2022-10-16T00:51:41;5.70;;;4.10;;
48185;SDS011;33978;47.432;18.916;2022-10-16T00:54:18;7.25;;;4.90;;
48185;SDS011;33978;47.432;18.916;2022-10-16T00:56:49;9.13;;;5.12;;
48185;SDS011;33978;47.432;18.916;2022-10-16T00:59:23;8.90;;;4.53;;
48185;SDS011;33978;47.432;18.916;2022-10-16T01:01:53;6.87;;;4.80;;
48185;SDS011;33978;47.432;18.916;2022-10-16T01:04:21;7.78;;;4.60;;
48185;SDS011;33978;47.432;18.916;2022-10-16T01:09:37;7.57;;;5.37;;
48185;SDS011;33978;47.432;18.916;2022-10-16T01:12:25;7.85;;;5.20;;
48185;SDS011;33978;47.432;18.916;2022-10-16T01:17:40;5.65;;;4.60;;
48185;SDS011;33978;47.432;18.916;2022-10-16T01:20:14;8.27;;;5.20;;
48185;SDS011;33978;47.432;18.916;2022-10-16T01:22:56;6.90;;;4.70;;
48185;SDS011;33978;47.432;18.916;2022-10-16T01:28:20;7.25;;;4.68;;
48185;SDS011;33978;47.432;18.916;2022-10-16T01:30:50;8.48;;;5.37;;
48185;SDS011;33978;47.432;18.916;2022-10-16T01:33:20;8.07;;;5.47;;
48185;SDS011;33978;47.432;18.916;2022-10-16T01:35:58;7.25;;;5.07;;
48185;SDS011;33978;47.432;18.916;2022-10-16T01:38:31;7.22;;;5.15;;
48185;SDS011;33978;47.432;18.916;2022-10-16T01:41:08;7.25;;;5.00;;
48185;SDS011;33978;47.432;18.916;2022-10-16T01:43:38;8.57;;;5.40;;
48185;SDS011;33978;47.432;18.916;2022-10-16T01:46:08;9.23;;;5.43;;
48185;SDS011;33978;47.432;18.916;2022-10-16T01:48:36;8.10;;;5.87;;
48185;SDS011;33978;47.432;18.916;2022-10-16T01:51:09;9.00;;;5.35;;
48185;SDS011;33978;47.432;18.916;2022-10-16T01:53:38;9.07;;;5.80;;
48185;SDS011;33978;47.432;18.916;2022-10-16T01:56:08;9.88;;;5.45;;
48185;SDS011;33978;47.432;18.916;2022-10-16T01:58:42;7.50;;;5.40;;
48185;SDS011;33978;47.432;18.916;2022-10-16T02:01:13;8.50;;;5.05;;
48185;SDS011;33978;47.432;18.916;2022-10-16T02:03:48;8.32;;;4.85;;
48185;SDS011;33978;47.432;18.916;2022-10-16T02:06:17;7.10;;;5.05;;
48185;SDS011;33978;47.432;18.916;2022-10-16T02:08:44;7.90;;;5.30;;
48185;SDS011;33978;47.432;18.916;2022-10-16T02:11:12;7.85;;;5.50;;
48185;SDS011;33978;47.432;18.916;2022-10-16T02:13:46;9.02;;;5.85;;
48185;SDS011;33978;47.432;18.916;2022-10-16T02:16:17;10.65;;;5.10;;
48185;SDS011;33978;47.432;18.916;2022-10-16T02:18:44;11.27;;;5.43;;
48185;SDS011;33978;47.432;18.916;2022-10-16T02:21:28;6.95;;;5.12;;
48185;SDS011;33978;47.432;18.916;2022-10-16T02:23:59;8.40;;;4.75;;
48185;SDS011;33978;47.432;18.916;2022-10-16T02:26:32;8.48;;;5.30;;
48185;SDS011;33978;47.432;18.916;2022-10-16T02:29:05;8.20;;;5.35;;
48185;SDS011;33978;47.432;18.916;2022-10-16T02:31:35;7.97;;;5.47;;
48185;SDS011;33978;47.432;18.916;2022-10-16T02:34:06;8.43;;;5.22;;
48185;SDS011;33978;47.432;18.916;2022-10-16T02:36:34;8.20;;;5.57;;
48185;SDS011;33978;47.432;18.916;2022-10-16T02:39:02;7.97;;;5.30;;
48185;SDS011;33978;47.432;18.916;2022-10-16T02:41:31;9.00;;;5.35;;
48185;SDS011;33978;47.432;18.916;2022-10-16T02:43:59;8.18;;;5.22;;
48185;SDS011;33978;47.432;18.916;2022-10-16T02:46:26;9.32;;;5.65;;
48185;SDS011;33978;47.432;18.916;2022-10-16T02:48:54;8.38;;;5.28;;
48185;SDS011;33978;47.432;18.916;2022-10-16T02:51:21;8.57;;;5.18;;
48185;SDS011;33978;47.432;18.916;2022-10-16T02:53:48;7.50;;;5.05;;
48185;SDS011;33978;47.432;18.916;2022-10-16T02:56:16;9.52;;;5.85;;
48185;SDS011;33978;47.432;18.916;2022-10-16T02:58:48;11.12;;;5.75;;
48185;SDS011;33978;47.432;18.916;2022-10-16T03:01:16;7.97;;;5.45;;
48185;SDS011;33978;47.432;18.916;2022-10-16T03:03:43;10.38;;;6.22;;
48185;SDS011;33978;47.432;18.916;2022-10-16T03:06:11;9.63;;;6.40;;
48185;SDS011;33978;47.432;18.916;2022-10-16T03:08:38;9.95;;;6.12;;
48185;SDS011;33978;47.432;18.916;2022-10-16T03:11:06;10.10;;;5.97;;
48185;SDS011;33978;47.432;18.916;2022-10-16T03:13:33;9.95;;;6.28;;
48185;SDS011;33978;47.432;18.916;2022-10-16T03:16:01;12.43;;;6.78;;
48185;SDS011;33978;47.432;18.916;2022-10-16T03:18:28;10.15;;;6.57;;
48185;SDS011;33978;47.432;18.916;2022-10-16T03:20:55;9.77;;;6.18;;
48185;SDS011;33978;47.432;18.916;2022-10-16T03:23:23;9.52;;;6.10;;
48185;SDS011;33978;47.432;18.916;2022-10-16T03:25:51;11.65;;;6.47;;
48185;SDS011;33978;47.432;18.916;2022-10-16T03:28:18;12.25;;;6.90;;
48185;SDS011;33978;47.432;18.916;2022-10-16T03:30:46;10.40;;;6.20;;
48185;SDS011;33978;47.432;18.916;2022-10-16T03:33:13;14.38;;;6.62;;
48185;SDS011;33978;47.432;18.916;2022-10-16T03:35:41;10.10;;;6.20;;
48185;SDS011;33978;47.432;18.916;2022-10-16T03:38:08;9.10;;;5.85;;
48185;SDS011;33978;47.432;18.916;2022-10-16T03:40:35;9.00;;;5.30;;
48185;SDS011;33978;47.432;18.916;2022-10-16T03:43:03;9.65;;;6.55;;
48185;SDS011;33978;47.432;18.916;2022-10-16T03:45:31;8.15;;;5.53;;
48185;SDS011;33978;47.432;18.916;2022-10-16T03:47:58;8.88;;;5.87;;
48185;SDS011;33978;47.432;18.916;2022-10-16T03:50:25;8.95;;;5.80;;
48185;SDS011;33978;47.432;18.916;2022-10-16T03:52:53;10.07;;;6.00;;
48185;SDS011;33978;47.432;18.916;2022-10-16T03:55:20;12.23;;;6.22;;
48185;SDS011;33978;47.432;18.916;2022-10-16T03:57:48;10.00;;;6.28;;
48185;SDS011;33978;47.432;18.916;2022-10-16T04:00:15;7.53;;;5.15;;
48185;SDS011;33978;47.432;18.916;2022-10-16T04:02:43;9.13;;;5.65;;
48185;SDS011;33978;47.432;18.916;2022-10-16T04:05:15;8.77;;;5.80;;
48185;SDS011;33978;47.432;18.916;2022-10-16T04:07:43;9.00;;;5.50;;
48185;SDS011;33978;47.432;18.916;2022-10-16T04:10:10;8.50;;;5.32;;
48185;SDS011;33978;47.432;18.916;2022-10-16T04:12:37;9.77;;;6.43;;
48185;SDS011;33978;47.432;18.916;2022-10-16T04:15:05;10.45;;;6.87;;
48185;SDS011;33978;47.432;18.916;2022-10-16T04:17:33;9.85;;;6.65;;
48185;SDS011;33978;47.432;18.916;2022-10-16T04:20:00;10.30;;;6.10;;
48185;SDS011;33978;47.432;18.916;2022-10-16T04:22:28;9.15;;;6.12;;
48185;SDS011;33978;47.432;18.916;2022-10-16T04:24:55;10.27;;;6.43;;
48185;SDS011;33978;47.432;18.916;2022-10-16T04:27:22;9.25;;;6.40;;
48185;SDS011;33978;47.432;18.916;2022-10-16T04:29:50;9.70;;;5.82;;
48185;SDS011;33978;47.432;18.916;2022-10-16T04:32:18;10.85;;;6.32;;
48185;SDS011;33978;47.432;18.916;2022-10-16T04:34:45;8.73;;;5.47;;
48185;SDS011;33978;47.432;18.916;2022-10-16T04:37:13;8.70;;;6.07;;
48185;SDS011;33978;47.432;18.916;2022-10-16T04:39:40;11.73;;;5.97;;
48185;SDS011;33978;47.432;18.916;2022-10-16T04:42:07;9.15;;;5.95;;
48185;SDS011;33978;47.432;18.916;2022-10-16T04:44:35;9.50;;;5.85;;
48185;SDS011;33978;47.432;18.916;2022-10-16T04:47:03;8.15;;;6.22;;
48185;SDS011;33978;47.432;18.916;2022-10-16T04:49:31;9.63;;;6.15;;
48185;SDS011;33978;47.432;18.916;2022-10-16T04:51:59;9.25;;;5.95;;
48185;SDS011;33978;47.432;18.916;2022-10-16T04:54:26;7.60;;;5.97;;
48185;SDS011;33978;47.432;18.916;2022-10-16T04:56:53;8.20;;;5.57;;
48185;SDS011;33978;47.432;18.916;2022-10-16T04:59:21;7.97;;;5.70;;
48185;SDS011;33978;47.432;18.916;2022-10-16T05:01:49;8.55;;;5.40;;
48185;SDS011;33978;47.432;18.916;2022-10-16T05:04:16;10.48;;;6.03;;
48185;SDS011;33978;47.432;18.916;2022-10-16T05:06:44;9.20;;;5.60;;
48185;SDS011;33978;47.432;18.916;2022-10-16T05:09:11;9.20;;;6.07;;
48185;SDS011;33978;47.432;18.916;2022-10-16T05:11:38;8.95;;;5.97;;
48185;SDS011;33978;47.432;18.916;2022-10-16T05:14:06;9.13;;;5.68;;
48185;SDS011;33978;47.432;18.916;2022-10-16T05:16:34;9.70;;;5.72;;
48185;SDS011;33978;47.432;18.916;2022-10-16T05:19:01;10.05;;;6.20;;
48185;SDS011;33978;47.432;18.916;2022-10-16T05:21:49;9.02;;;5.93;;
48185;SDS011;33978;47.432;18.916;2022-10-16T05:24:16;9.05;;;5.90;;
48185;SDS011;33978;47.432;18.916;2022-10-16T05:26:43;8.65;;;5.78;;
48185;SDS011;33978;47.432;18.916;2022-10-16T05:29:11;7.50;;;5.40;;
48185;SDS011;33978;47.432;18.916;2022-10-16T05:31:38;9.10;;;6.03;;
48185;SDS011;33978;47.432;18.916;2022-10-16T05:34:06;9.65;;;6.15;;
48185;SDS011;33978;47.432;18.916;2022-10-16T05:36:33;10.15;;;6.35;;
48185;SDS011;33978;47.432;18.916;2022-10-16T05:39:01;10.07;;;6.28;;
48185;SDS011;33978;47.432;18.916;2022-10-16T05:41:28;10.82;;;6.28;;
48185;SDS011;33978;47.432;18.916;2022-10-16T05:43:56;9.55;;;6.28;;
48185;SDS011;33978;47.432;18.916;2022-10-16T05:46:23;8.75;;;6.30;;
48185;SDS011;33978;47.432;18.916;2022-10-16T05:48:51;13.50;;;6.50;;
48185;SDS011;33978;47.432;18.916;2022-10-16T05:51:20;11.07;;;6.53;;
48185;SDS011;33978;47.432;18.916;2022-10-16T05:53:47;9.50;;;6.68;;
48185;SDS011;33978;47.432;18.916;2022-10-16T05:56:15;8.80;;;6.05;;
48185;SDS011;33978;47.432;18.916;2022-10-16T05:58:43;10.30;;;6.90;;
48185;SDS011;33978;47.432;18.916;2022-10-16T06:01:12;10.05;;;6.35;;
48185;SDS011;33978;47.432;18.916;2022-10-16T06:03:41;9.15;;;6.35;;
48185;SDS011;33978;47.432;18.916;2022-10-16T06:06:10;10.10;;;6.32;;
48185;SDS011;33978;47.432;18.916;2022-10-16T06:08:39;10.98;;;7.32;;
48185;SDS011;33978;47.432;18.916;2022-10-16T06:11:07;9.55;;;6.28;;
48185;SDS011;33978;47.432;18.916;2022-10-16T06:13:37;10.00;;;6.37;;
48185;SDS011;33978;47.432;18.916;2022-10-16T06:16:04;9.65;;;6.18;;
48185;SDS011;33978;47.432;18.916;2022-10-16T06:18:32;8.60;;;5.62;;
48185;SDS011;33978;47.432;18.916;2022-10-16T06:20:59;7.87;;;5.37;;
48185;SDS011;33978;47.432;18.916;2022-10-16T06:23:27;9.07;;;5.75;;
48185;SDS011;33978;47.432;18.916;2022-10-16T06:26:03;8.48;;;5.82;;
48185;SDS011;33978;47.432;18.916;2022-10-16T06:28:31;9.13;;;5.82;;
48185;SDS011;33978;47.432;18.916;2022-10-16T06:31:00;7.18;;;5.07;;
48185;SDS011;33978;47.432;18.916;2022-10-16T06:33:34;9.13;;;5.30;;
48185;SDS011;33978;47.432;18.916;2022-10-16T06:36:06;8.35;;;5.22;;
48185;SDS011;33978;47.432;18.916;2022-10-16T06:38:35;9.80;;;5.25;;
48185;SDS011;33978;47.432;18.916;2022-10-16T06:41:03;8.15;;;5.55;;
48185;SDS011;33978;47.432;18.916;2022-10-16T06:43:31;7.43;;;5.30;;
48185;SDS011;33978;47.432;18.916;2022-10-16T06:45:59;9.00;;;5.30;;
48185;SDS011;33978;47.432;18.916;2022-10-16T06:48:27;7.18;;;5.10;;
48185;SDS011;33978;47.432;18.916;2022-10-16T06:50:58;8.40;;;5.18;;
48185;SDS011;33978;47.432;18.916;2022-10-16T06:53:28;7.82;;;5.50;;
48185;SDS011;33978;47.432;18.916;2022-10-16T06:56:14;8.40;;;5.35;;
48185;SDS011;33978;47.432;18.916;2022-10-16T06:58:43;10.80;;;5.60;;
48185;SDS011;33978;47.432;18.916;2022-10-16T07:01:11;11.23;;;5.60;;
48185;SDS011;33978;47.432;18.916;2022-10-16T07:03:39;8.95;;;5.53;;
48185;SDS011;33978;47.432;18.916;2022-10-16T07:06:09;7.90;;;5.50;;
48185;SDS011;33978;47.432;18.916;2022-10-16T07:08:39;8.40;;;5.05;;
48185;SDS011;33978;47.432;18.916;2022-10-16T07:11:09;9.45;;;5.53;;
48185;SDS011;33978;47.432;18.916;2022-10-16T07:13:39;8.27;;;5.53;;
48185;SDS011;33978;47.432;18.916;2022-10-16T07:16:08;7.68;;;5.50;;
48185;SDS011;33978;47.432;18.916;2022-10-16T07:18:36;9.70;;;5.87;;
48185;SDS011;33978;47.432;18.916;2022-10-16T07:21:06;9.00;;;5.68;;
48185;SDS011;33978;47.432;18.916;2022-10-16T07:23:34;8.88;;;5.85;;
48185;SDS011;33978;47.432;18.916;2022-10-16T07:26:02;7.90;;;5.43;;
48185;SDS011;33978;47.432;18.916;2022-10-16T07:28:30;13.07;;;7.47;;
48185;SDS011;33978;47.432;18.916;2022-10-16T07:31:02;24.08;;;11.63;;
48185;SDS011;33978;47.432;18.916;2022-10-16T07:33:35;12.25;;;7.10;;
48185;SDS011;33978;47.432;18.916;2022-10-16T07:36:02;27.30;;;15.48;;
48185;SDS011;33978;47.432;18.916;2022-10-16T07:38:29;16.30;;;10.35;;
48185;SDS011;33978;47.432;18.916;2022-10-16T07:40:59;9.02;;;5.47;;
48185;SDS011;33978;47.432;18.916;2022-10-16T07:43:28;11.20;;;6.68;;
48185;SDS011;33978;47.432;18.916;2022-10-16T07:45:55;9.27;;;5.50;;
48185;SDS011;33978;47.432;18.916;2022-10-16T07:48:26;8.85;;;5.80;;
48185;SDS011;33978;47.432;18.916;2022-10-16T07:51:03;10.10;;;5.75;;
48185;SDS011;33978;47.432;18.916;2022-10-16T07:53:32;8.70;;;5.62;;
48185;SDS011;33978;47.432;18.916;2022-10-16T07:56:04;10.43;;;5.65;;
48185;SDS011;33978;47.432;18.916;2022-10-16T07:58:33;8.23;;;5.70;;
48185;SDS011;33978;47.432;18.916;2022-10-16T08:01:03;9.02;;;5.43;;
48185;SDS011;33978;47.432;18.916;2022-10-16T08:03:32;8.73;;;5.90;;
48185;SDS011;33978;47.432;18.916;2022-10-16T08:06:00;7.40;;;5.50;;
48185;SDS011;33978;47.432;18.916;2022-10-16T08:08:27;9.20;;;5.85;;
48185;SDS011;33978;47.432;18.916;2022-10-16T08:10:56;8.18;;;5.53;;
48185;SDS011;33978;47.432;18.916;2022-10-16T08:13:23;9.55;;;5.60;;
48185;SDS011;33978;47.432;18.916;2022-10-16T08:15:50;8.55;;;5.80;;
48185;SDS011;33978;47.432;18.916;2022-10-16T08:18:18;8.75;;;5.65;;
48185;SDS011;33978;47.432;18.916;2022-10-16T08:20:45;10.02;;;6.00;;
48185;SDS011;33978;47.432;18.916;2022-10-16T08:23:13;7.82;;;5.40;;
48185;SDS011;33978;47.432;18.916;2022-10-16T08:25:41;8.88;;;5.37;;
48185;SDS011;33978;47.432;18.916;2022-10-16T08:28:09;8.60;;;5.28;;
48185;SDS011;33978;47.432;18.916;2022-10-16T08:30:37;8.50;;;5.80;;
48185;SDS011;33978;47.432;18.916;2022-10-16T08:33:04;9.55;;;5.35;;
48185;SDS011;33978;47.432;18.916;2022-10-16T08:35:33;7.57;;;5.30;;
48185;SDS011;33978;47.432;18.916;2022-10-16T08:38:02;10.23;;;5.72;;
48185;SDS011;33978;47.432;18.916;2022-10-16T08:40:31;8.65;;;5.87;;
48185;SDS011;33978;47.432;18.916;2022-10-16T08:48:47;7.45;;;4.57;;
48185;SDS011;33978;47.432;18.916;2022-10-16T08:54:01;8.45;;;5.28;;
48185;SDS011;33978;47.432;18.916;2022-10-16T08:56:33;9.18;;;5.93;;
48185;SDS011;33978;47.432;18.916;2022-10-16T08:59:00;8.70;;;5.40;;
48185;SDS011;33978;47.432;18.916;2022-10-16T09:01:35;9.10;;;6.03;;
48185;SDS011;33978;47.432;18.916;2022-10-16T09:04:11;7.25;;;5.22;;
48185;SDS011;33978;47.432;18.916;2022-10-16T09:06:46;8.70;;;5.05;;
48185;SDS011;33978;47.432;18.916;2022-10-16T09:12:08;7.62;;;5.35;;
48185;SDS011;33978;47.432;18.916;2022-10-16T09:23:10;9.40;;;5.28;;
48185;SDS011;33978;47.432;18.916;2022-10-16T09:25:44;9.83;;;5.47;;
48185;SDS011;33978;47.432;18.916;2022-10-16T09:28:15;8.50;;;5.60;;
48185;SDS011;33978;47.432;18.916;2022-10-16T09:30:44;9.30;;;5.30;;
48185;SDS011;33978;47.432;18.916;2022-10-16T09:33:12;8.43;;;5.40;;
48185;SDS011;33978;47.432;18.916;2022-10-16T09:35:42;7.82;;;5.43;;
48185;SDS011;33978;47.432;18.916;2022-10-16T09:38:31;9.93;;;5.82;;
48185;SDS011;33978;47.432;18.916;2022-10-16T09:41:00;8.00;;;5.43;;
48185;SDS011;33978;47.432;18.916;2022-10-16T09:43:40;8.95;;;5.95;;
48185;SDS011;33978;47.432;18.916;2022-10-16T09:46:30;8.20;;;5.55;;
48185;SDS011;33978;47.432;18.916;2022-10-16T09:49:00;10.10;;;5.78;;
48185;SDS011;33978;47.432;18.916;2022-10-16T09:51:33;8.57;;;5.60;;
48185;SDS011;33978;47.432;18.916;2022-10-16T09:54:17;9.13;;;5.35;;
48185;SDS011;33978;47.432;18.916;2022-10-16T09:56:46;8.60;;;5.72;;
48185;SDS011;33978;47.432;18.916;2022-10-16T09:59:20;7.72;;;5.62;;
48185;SDS011;33978;47.432;18.916;2022-10-16T10:01:51;7.15;;;5.12;;
48185;SDS011;33978;47.432;18.916;2022-10-16T10:04:23;8.20;;;5.43;;
48185;SDS011;33978;47.432;18.916;2022-10-16T10:09:26;10.88;;;6.20;;
48185;SDS011;33978;47.432;18.916;2022-10-16T10:11:56;7.20;;;5.03;;
48185;SDS011;33978;47.432;18.916;2022-10-16T10:14:39;7.93;;;5.68;;
48185;SDS011;33978;47.432;18.916;2022-10-16T10:17:20;8.15;;;5.18;;
48185;SDS011;33978;47.432;18.916;2022-10-16T10:19:59;8.23;;;5.45;;
48185;SDS011;33978;47.432;18.916;2022-10-16T10:22:38;7.05;;;4.70;;
48185;SDS011;33978;47.432;18.916;2022-10-16T10:35:45;8.02;;;4.45;;
48185;SDS011;33978;47.432;18.916;2022-10-16T10:41:05;7.30;;;4.68;;
48185;SDS011;33978;47.432;18.916;2022-10-16T10:44:20;6.50;;;4.68;;
48185;SDS011;33978;47.432;18.916;2022-10-16T10:49:38;7.75;;;4.97;;
48185;SDS011;33978;47.432;18.916;2022-10-16T11:06:26;51.63;;;46.70;;
48185;SDS011;33978;47.432;18.916;2022-10-16T11:11:50;8.38;;;4.45;;
48185;SDS011;33978;47.432;18.916;2022-10-16T11:14:23;5.53;;;4.45;;
48185;SDS011;33978;47.432;18.916;2022-10-16T11:17:01;5.93;;;4.37;;
48185;SDS011;33978;47.432;18.916;2022-10-16T11:19:35;6.90;;;4.22;;
48185;SDS011;33978;47.432;18.916;2022-10-16T11:25:15;6.05;;;4.00;;
48185;SDS011;33978;47.432;18.916;2022-10-16T11:30:44;4.85;;;3.58;;
48185;SDS011;33978;47.432;18.916;2022-10-16T11:33:49;5.57;;;3.40;;
48185;SDS011;33978;47.432;18.916;2022-10-16T11:38:49;5.40;;;3.55;;
48185;SDS011;33978;47.432;18.916;2022-10-16T11:47:06;4.55;;;3.03;;
48185;SDS011;33978;47.432;18.916;2022-10-16T11:52:48;5.12;;;3.30;;
48185;SDS011;33978;47.432;18.916;2022-10-16T11:55:20;8.60;;;4.20;;
48185;SDS011;33978;47.432;18.916;2022-10-16T11:57:49;5.57;;;3.20;;
48185;SDS011;33978;47.432;18.916;2022-10-16T12:08:52;6.25;;;3.33;;
48185;SDS011;33978;47.432;18.916;2022-10-16T12:11:31;5.35;;;3.47;;
48185;SDS011;33978;47.432;18.916;2022-10-16T12:14:04;5.30;;;3.47;;
48185;SDS011;33978;47.432;18.916;2022-10-16T12:16:34;5.50;;;3.25;;
48185;SDS011;33978;47.432;18.916;2022-10-16T12:19:14;5.82;;;3.67;;
48185;SDS011;33978;47.432;18.916;2022-10-16T12:21:43;4.65;;;3.17;;
48185;SDS011;33978;47.432;18.916;2022-10-16T12:27:01;5.20;;;3.20;;
48185;SDS011;33978;47.432;18.916;2022-10-16T12:32:05;4.65;;;3.35;;
48185;SDS011;33978;47.432;18.916;2022-10-16T12:35:16;5.50;;;3.47;;
48185;SDS011;33978;47.432;18.916;2022-10-16T12:37:45;6.72;;;3.45;;
48185;SDS011;33978;47.432;18.916;2022-10-16T12:40:14;4.87;;;3.47;;
48185;SDS011;33978;47.432;18.916;2022-10-16T12:42:49;4.80;;;3.60;;
48185;SDS011;33978;47.432;18.916;2022-10-16T12:47:51;5.40;;;3.55;;
48185;SDS011;33978;47.432;18.916;2022-10-16T12:50:34;6.43;;;3.40;;
48185;SDS011;33978;47.432;18.916;2022-10-16T12:53:04;4.70;;;3.35;;
48185;SDS011;33978;47.432;18.916;2022-10-16T12:58:42;6.43;;;3.60;;
48185;SDS011;33978;47.432;18.916;2022-10-16T13:04:39;5.93;;;3.33;;
48185;SDS011;33978;47.432;18.916;2022-10-16T13:12:36;4.80;;;3.40;;
48185;SDS011;33978;47.432;18.916;2022-10-16T13:29:12;5.50;;;3.12;;
48185;SDS011;33978;47.432;18.916;2022-10-16T13:31:41;4.47;;;3.45;;
48185;SDS011;33978;47.432;18.916;2022-10-16T13:34:12;4.80;;;3.00;;
48185;SDS011;33978;47.432;18.916;2022-10-16T13:36:49;4.87;;;3.30;;
48185;SDS011;33978;47.432;18.916;2022-10-16T13:39:25;5.22;;;3.25;;
48185;SDS011;33978;47.432;18.916;2022-10-16T13:41:58;6.10;;;3.22;;
48185;SDS011;33978;47.432;18.916;2022-10-16T13:44:48;4.05;;;3.00;;
48185;SDS011;33978;47.432;18.916;2022-10-16T13:47:18;4.07;;;3.12;;
48185;SDS011;33978;47.432;18.916;2022-10-16T13:52:27;5.75;;;3.60;;
48185;SDS011;33978;47.432;18.916;2022-10-16T13:54:55;6.55;;;3.08;;
48185;SDS011;33978;47.432;18.916;2022-10-16T13:57:28;6.37;;;3.30;;
48185;SDS011;33978;47.432;18.916;2022-10-16T13:59:55;4.75;;;2.85;;
48185;SDS011;33978;47.432;18.916;2022-10-16T14:02:27;5.07;;;2.97;;
48185;SDS011;33978;47.432;18.916;2022-10-16T14:04:57;4.82;;;3.10;;
48185;SDS011;33978;47.432;18.916;2022-10-16T14:07:32;5.87;;;3.28;;
48185;SDS011;33978;47.432;18.916;2022-10-16T14:10:02;5.47;;;3.35;;
48185;SDS011;33978;47.432;18.916;2022-10-16T14:12:33;5.97;;;3.60;;
48185;SDS011;33978;47.432;18.916;2022-10-16T14:15:02;7.45;;;3.30;;
48185;SDS011;33978;47.432;18.916;2022-10-16T14:17:30;4.80;;;2.92;;
48185;SDS011;33978;47.432;18.916;2022-10-16T14:20:00;5.00;;;3.10;;
48185;SDS011;33978;47.432;18.916;2022-10-16T14:22:34;5.75;;;3.70;;
48185;SDS011;33978;47.432;18.916;2022-10-16T14:25:15;5.18;;;3.35;;
48185;SDS011;33978;47.432;18.916;2022-10-16T14:30:54;4.57;;;3.20;;
48185;SDS011;33978;47.432;18.916;2022-10-16T14:38:36;3.75;;;2.95;;
48185;SDS011;33978;47.432;18.916;2022-10-16T14:41:05;4.53;;;3.30;;
48185;SDS011;33978;47.432;18.916;2022-10-16T14:46:02;6.53;;;3.85;;
48185;SDS011;33978;47.432;18.916;2022-10-16T14:48:32;6.53;;;3.75;;
48185;SDS011;33978;47.432;18.916;2022-10-16T14:50:59;5.20;;;2.90;;
48185;SDS011;33978;47.432;18.916;2022-10-16T14:53:27;6.60;;;4.28;;
48185;SDS011;33978;47.432;18.916;2022-10-16T14:55:54;4.40;;;2.95;;
48185;SDS011;33978;47.432;18.916;2022-10-16T14:58:22;6.00;;;3.35;;
48185;SDS011;33978;47.432;18.916;2022-10-16T15:00:50;4.32;;;3.20;;
48185;SDS011;33978;47.432;18.916;2022-10-16T15:03:18;7.50;;;3.08;;
48185;SDS011;33978;47.432;18.916;2022-10-16T15:05:45;4.93;;;3.25;;
48185;SDS011;33978;47.432;18.916;2022-10-16T15:08:13;4.62;;;3.10;;
48185;SDS011;33978;47.432;18.916;2022-10-16T15:10:41;4.80;;;3.28;;
48185;SDS011;33978;47.432;18.916;2022-10-16T15:13:11;4.80;;;2.97;;
48185;SDS011;33978;47.432;18.916;2022-10-16T15:15:42;4.90;;;3.50;;
48185;SDS011;33978;47.432;18.916;2022-10-16T15:18:10;5.25;;;3.25;;
48185;SDS011;33978;47.432;18.916;2022-10-16T15:20:38;4.20;;;3.12;;
48185;SDS011;33978;47.432;18.916;2022-10-16T15:23:13;4.47;;;3.28;;
48185;SDS011;33978;47.432;18.916;2022-10-16T15:25:44;6.43;;;3.17;;
48185;SDS011;33978;47.432;18.916;2022-10-16T15:28:16;6.32;;;3.58;;
48185;SDS011;33978;47.432;18.916;2022-10-16T15:30:43;6.60;;;3.97;;
48185;SDS011;33978;47.432;18.916;2022-10-16T15:33:15;8.15;;;4.28;;
48185;SDS011;33978;47.432;18.916;2022-10-16T15:35:47;6.82;;;3.65;;
48185;SDS011;33978;47.432;18.916;2022-10-16T15:38:19;6.75;;;3.80;;
48185;SDS011;33978;47.432;18.916;2022-10-16T15:40:49;5.97;;;4.12;;
48185;SDS011;33978;47.432;18.916;2022-10-16T15:43:17;5.65;;;4.10;;
48185;SDS011;33978;47.432;18.916;2022-10-16T15:46:05;6.82;;;3.53;;
48185;SDS011;33978;47.432;18.916;2022-10-16T15:48:33;5.40;;;3.58;;
48185;SDS011;33978;47.432;18.916;2022-10-16T15:51:04;5.75;;;3.50;;
48185;SDS011;33978;47.432;18.916;2022-10-16T15:53:33;5.57;;;3.83;;
48185;SDS011;33978;47.432;18.916;2022-10-16T15:56:04;6.97;;;3.75;;
48185;SDS011;33978;47.432;18.916;2022-10-16T15:58:34;8.05;;;4.28;;
48185;SDS011;33978;47.432;18.916;2022-10-16T16:01:01;6.90;;;3.80;;
48185;SDS011;33978;47.432;18.916;2022-10-16T16:03:31;12.90;;;6.32;;
48185;SDS011;33978;47.432;18.916;2022-10-16T16:06:03;8.20;;;5.12;;
48185;SDS011;33978;47.432;18.916;2022-10-16T16:08:32;8.82;;;5.03;;
48185;SDS011;33978;47.432;18.916;2022-10-16T16:11:00;6.53;;;4.32;;
48185;SDS011;33978;47.432;18.916;2022-10-16T16:13:29;8.73;;;5.32;;
48185;SDS011;33978;47.432;18.916;2022-10-16T16:15:56;7.78;;;4.60;;
48185;SDS011;33978;47.432;18.916;2022-10-16T16:18:24;7.35;;;4.45;;
48185;SDS011;33978;47.432;18.916;2022-10-16T16:20:51;8.05;;;4.20;;
48185;SDS011;33978;47.432;18.916;2022-10-16T16:23:19;6.55;;;4.72;;
48185;SDS011;33978;47.432;18.916;2022-10-16T16:26:01;11.10;;;5.47;;
48185;SDS011;33978;47.432;18.916;2022-10-16T16:28:53;12.07;;;7.37;;
48185;SDS011;33978;47.432;18.916;2022-10-16T16:31:23;16.60;;;8.73;;
48185;SDS011;33978;47.432;18.916;2022-10-16T16:33:52;20.60;;;10.20;;
48185;SDS011;33978;47.432;18.916;2022-10-16T16:36:20;33.63;;;15.10;;
48185;SDS011;33978;47.432;18.916;2022-10-16T16:38:47;23.73;;;12.02;;
48185;SDS011;33978;47.432;18.916;2022-10-16T16:41:19;28.87;;;15.38;;
48185;SDS011;33978;47.432;18.916;2022-10-16T16:43:47;21.70;;;12.05;;
48185;SDS011;33978;47.432;18.916;2022-10-16T16:46:16;16.70;;;10.50;;
48185;SDS011;33978;47.432;18.916;2022-10-16T16:48:43;14.07;;;8.82;;
48185;SDS011;33978;47.432;18.916;2022-10-16T16:51:12;16.87;;;9.30;;
48185;SDS011;33978;47.432;18.916;2022-10-16T16:53:50;14.60;;;9.48;;
48185;SDS011;33978;47.432;18.916;2022-10-16T16:56:18;18.23;;;11.12;;
48185;SDS011;33978;47.432;18.916;2022-10-16T16:58:47;19.20;;;12.85;;
48185;SDS011;33978;47.432;18.916;2022-10-16T17:01:16;21.67;;;14.63;;
48185;SDS011;33978;47.432;18.916;2022-10-16T17:03:47;25.17;;;17.50;;
48185;SDS011;33978;47.432;18.916;2022-10-16T17:06:21;38.92;;;29.37;;
48185;SDS011;33978;47.432;18.916;2022-10-16T17:08:50;40.67;;;30.23;;
48185;SDS011;33978;47.432;18.916;2022-10-16T17:11:19;37.47;;;25.98;;